ACE weather

Lanzarote Airport
Lanzarote Island, Canary Islands, Spain

Public forecast

Using degrees Celsius for public forecast. Weather courtesy of forecast.io.

METAR (pilot weather report)

Retrieved 2019/05/26 05:30 UTC (4 minutes ago):

GCRR 260530Z 34015G25KT 9999 FEW016 19/15 Q1013

TAF (pilot weather forecast)

Retrieved 2019/05/26 03:27 UTC (2 hours ago):

TAF GCRR 260200Z 2603/2703 35015KT 9999 SCT020 TX28/2614Z TN18/2606Z PROB40 TEMPO 2618/2623 36020G30KT